createdAt,value
2018-06-05T00:01:32.274Z,99.60
2018-06-05T00:04:04.623Z,99.90
2018-06-05T00:06:36.958Z,99.90
2018-06-05T00:09:09.203Z,99.90
2018-06-05T00:11:42.331Z,99.90
2018-06-05T00:14:14.590Z,99.90
2018-06-05T00:16:46.924Z,99.90
2018-06-05T00:19:19.217Z,99.90
2018-06-05T00:21:52.299Z,99.90
2018-06-05T00:24:24.565Z,99.90
2018-06-05T00:26:57.675Z,99.90
2018-06-05T00:29:29.966Z,99.90
2018-06-05T00:32:02.327Z,99.90
2018-06-05T00:34:34.714Z,99.90
2018-06-05T00:37:07.049Z,99.90
2018-06-05T00:39:39.298Z,99.90
2018-06-05T00:42:11.547Z,99.90
2018-06-05T00:44:43.927Z,99.90
2018-06-05T00:47:16.314Z,99.90
2018-06-05T00:49:48.658Z,99.90
2018-06-05T00:52:20.976Z,99.90
2018-06-05T00:54:54.012Z,99.90
2018-06-05T00:57:26.434Z,99.90
2018-06-05T00:59:59.569Z,99.90
2018-06-05T01:02:31.975Z,99.90
2018-06-05T01:05:04.411Z,99.90
2018-06-05T01:07:36.729Z,99.90
2018-06-05T01:10:09.758Z,99.90
2018-06-05T01:12:42.085Z,99.90
2018-06-05T01:15:15.141Z,99.90
2018-06-05T01:17:47.552Z,99.90
2018-06-05T01:20:19.838Z,99.90
2018-06-05T01:22:53.013Z,99.90
2018-06-05T01:25:25.252Z,99.90
2018-06-05T01:27:57.646Z,99.90
2018-06-05T01:30:30.057Z,99.90
2018-06-05T01:33:02.470Z,99.90
2018-06-05T01:35:34.779Z,99.90
2018-06-05T01:38:07.859Z,99.90
2018-06-05T01:40:40.273Z,99.90
2018-06-05T01:43:12.519Z,99.90
2018-06-05T01:45:45.608Z,99.90
2018-06-05T01:48:18.758Z,99.90
2018-06-05T01:50:51.099Z,99.90
2018-06-05T01:53:23.362Z,99.90
2018-06-05T01:55:55.694Z,99.90
2018-06-05T01:58:28.149Z,99.90
2018-06-05T02:01:00.501Z,99.90
2018-06-05T02:03:32.892Z,99.90
2018-06-05T02:06:05.159Z,99.90
2018-06-05T02:08:37.500Z,99.90
2018-06-05T02:11:09.843Z,99.90
2018-06-05T02:13:42.939Z,99.90
2018-06-05T02:16:15.972Z,99.90
2018-06-05T02:18:48.382Z,99.90
2018-06-05T02:21:20.731Z,99.90
2018-06-05T02:23:53.133Z,99.90
2018-06-05T02:26:25.427Z,99.90
2018-06-05T02:28:57.730Z,99.90
2018-06-05T02:31:30.112Z,99.90
2018-06-05T02:34:02.533Z,99.90
2018-06-05T02:36:35.670Z,99.90
2018-06-05T02:39:08.062Z,99.90
2018-06-05T02:41:40.432Z,99.90
2018-06-05T02:44:12.718Z,99.90
2018-06-05T02:46:44.987Z,99.70
2018-06-05T02:49:17.304Z,99.90
2018-06-05T02:51:49.617Z,99.80
2018-06-05T02:54:22.029Z,99.80
2018-06-05T02:56:55.029Z,99.10
2018-06-05T02:59:27.528Z,99.10
2018-06-05T03:01:59.815Z,98.10
2018-06-05T03:04:32.126Z,97.70
2018-06-05T03:07:05.118Z,97.60
2018-06-05T03:09:38.294Z,98.40
2018-06-05T03:12:10.549Z,98.30
2018-06-05T03:14:42.967Z,98.20
2018-06-05T03:17:15.984Z,97.50
2018-06-05T03:19:48.271Z,97.50
2018-06-05T03:22:20.575Z,97.60
2018-06-05T03:24:52.960Z,96.80
2018-06-05T03:27:26.034Z,97.40
2018-06-05T03:29:58.412Z,97.30
2018-06-05T03:32:30.713Z,97.50
2018-06-05T03:35:03.121Z,97.70
2018-06-05T03:37:35.394Z,97.30
2018-06-05T03:40:07.792Z,96.80
2018-06-05T03:42:40.174Z,96.80
2018-06-05T03:45:12.518Z,96.40
2018-06-05T03:47:44.857Z,96.70
2018-06-05T03:50:17.194Z,97.10
2018-06-05T03:52:49.542Z,96.70
2018-06-05T03:55:21.859Z,96.40
2018-06-05T03:57:54.116Z,96.50
2018-06-05T04:00:27.301Z,96.50
2018-06-05T04:03:00.434Z,97.00
2018-06-05T04:05:32.748Z,97.00
2018-06-05T04:08:05.132Z,96.30
2018-06-05T04:10:38.311Z,96.70
2018-06-05T04:13:10.602Z,96.60
2018-06-05T04:15:43.626Z,96.70
2018-06-05T04:18:16.080Z,96.70
2018-06-05T04:20:48.406Z,96.00
2018-06-05T04:23:20.698Z,96.40
2018-06-05T04:25:53.761Z,95.40
2018-06-05T04:28:26.030Z,95.40
2018-06-05T04:30:58.354Z,96.20
2018-06-05T04:33:30.642Z,95.90
2018-06-05T04:36:03.017Z,95.70
2018-06-05T04:38:35.430Z,96.20
2018-06-05T04:41:07.683Z,96.00
2018-06-05T04:43:40.001Z,95.20
2018-06-05T04:46:13.092Z,95.00
2018-06-05T04:48:46.242Z,95.20
2018-06-05T04:51:18.555Z,95.20
2018-06-05T04:53:51.572Z,95.50
2018-06-05T04:56:23.984Z,95.50
2018-06-05T04:58:56.370Z,94.90
2018-06-05T05:01:28.742Z,94.80
2018-06-05T05:04:01.782Z,94.50
2018-06-05T05:06:34.212Z,94.40
2018-06-05T05:09:07.279Z,94.80
2018-06-05T05:11:39.673Z,94.80
2018-06-05T05:14:12.765Z,95.30
2018-06-05T05:16:45.201Z,95.30
2018-06-05T05:19:17.483Z,95.10
2018-06-05T05:21:49.783Z,94.90
2018-06-05T05:24:22.883Z,94.70
2018-06-05T05:26:55.912Z,94.10
2018-06-05T05:29:28.189Z,94.10
2018-06-05T05:32:00.605Z,93.60
2018-06-05T05:34:33.659Z,93.50
2018-06-05T05:37:06.073Z,93.50
2018-06-05T05:39:38.441Z,93.80
2018-06-05T05:42:11.564Z,93.80
2018-06-05T05:44:43.887Z,93.80
2018-06-05T05:47:16.241Z,93.10
2018-06-05T05:49:48.632Z,93.60
2018-06-05T05:52:21.871Z,93.40
2018-06-05T05:54:54.294Z,93.50
2018-06-05T05:57:26.556Z,94.70
2018-06-05T05:59:58.904Z,94.00
2018-06-05T06:02:31.341Z,94.30
2018-06-05T06:05:03.690Z,93.70
2018-06-05T06:07:36.032Z,94.10
2018-06-05T06:10:08.394Z,94.50
2018-06-05T06:12:40.843Z,94.00
2018-06-05T06:15:13.275Z,93.70
2018-06-05T06:17:45.595Z,93.50
2018-06-05T06:20:17.944Z,93.20
2018-06-05T06:22:51.132Z,93.30
2018-06-05T06:25:24.206Z,93.40
2018-06-05T06:27:56.525Z,93.40
2018-06-05T06:30:28.870Z,93.10
2018-06-05T06:33:01.957Z,92.70
2018-06-05T06:35:35.104Z,92.90
2018-06-05T06:38:07.424Z,92.80
2018-06-05T06:40:39.828Z,93.10
2018-06-05T06:43:12.172Z,92.20
2018-06-05T06:45:45.215Z,92.40
2018-06-05T06:48:17.599Z,92.40
2018-06-05T06:50:49.980Z,92.80
2018-06-05T06:53:22.378Z,93.50
2018-06-05T06:55:55.490Z,93.00
2018-06-05T06:58:27.855Z,93.00
2018-06-05T07:01:00.148Z,92.80
2018-06-05T07:03:32.500Z,92.50
2018-06-05T07:06:04.807Z,92.90
2018-06-05T07:08:37.112Z,92.10
2018-06-05T07:11:09.476Z,92.60
2018-06-05T07:13:41.858Z,92.30
2018-06-05T07:16:14.380Z,92.40
2018-06-05T07:18:46.680Z,93.60
2018-06-05T07:21:19.045Z,92.60
2018-06-05T07:23:51.440Z,93.00
2018-06-05T07:26:23.798Z,93.00
2018-06-05T07:28:56.173Z,92.70
2018-06-05T07:31:28.430Z,91.90
2018-06-05T07:34:00.775Z,92.20
2018-06-05T07:36:33.079Z,92.70
2018-06-05T07:39:05.464Z,92.40
2018-06-05T07:41:37.760Z,91.40
2018-06-05T07:44:11.090Z,91.40
2018-06-05T07:46:43.404Z,91.30
2018-06-05T07:49:15.732Z,91.10
2018-06-05T07:51:48.092Z,91.10
2018-06-05T07:54:20.450Z,90.70
2018-06-05T07:56:52.881Z,90.60
2018-06-05T07:59:25.253Z,89.70
2018-06-05T08:01:57.587Z,89.30
2018-06-05T08:04:29.975Z,90.20
2018-06-05T08:07:02.214Z,89.00
2018-06-05T08:09:35.194Z,89.70
2018-06-05T08:12:08.235Z,89.00
2018-06-05T08:14:40.662Z,89.00
2018-06-05T08:17:13.711Z,85.00
2018-06-05T08:19:46.089Z,84.90
2018-06-05T08:22:18.455Z,87.10
2018-06-05T08:24:50.871Z,87.60
2018-06-05T08:27:23.243Z,86.50
2018-06-05T08:29:55.634Z,86.60
2018-06-05T08:32:28.038Z,84.90
2018-06-05T08:35:00.360Z,84.90
2018-06-05T08:37:33.423Z,84.30
2018-06-05T08:40:05.809Z,84.30
2018-06-05T08:42:38.103Z,81.60
2018-06-05T08:45:10.463Z,81.40
2018-06-05T08:47:43.503Z,84.00
2018-06-05T08:50:15.787Z,84.10
2018-06-05T08:52:48.065Z,79.60
2018-06-05T08:55:20.454Z,81.90
2018-06-05T08:57:52.804Z,80.80
2018-06-05T09:00:25.131Z,81.40
2018-06-05T09:02:57.449Z,75.60
2018-06-05T09:05:29.839Z,74.10
2018-06-05T09:08:02.244Z,72.10
2018-06-05T09:10:34.536Z,71.70
2018-06-05T09:13:07.651Z,64.30
2018-06-05T09:15:40.051Z,64.30
2018-06-05T09:18:12.366Z,65.90
2018-06-05T09:20:44.762Z,70.00
2018-06-05T09:23:17.040Z,70.60
2018-06-05T09:25:49.384Z,67.50
2018-06-05T09:28:21.779Z,68.30
2018-06-05T09:30:54.192Z,68.90
2018-06-05T09:33:27.358Z,70.00
2018-06-05T09:35:59.831Z,69.70
2018-06-05T09:38:32.111Z,70.30
2018-06-05T09:41:04.530Z,71.60
2018-06-05T09:43:37.601Z,71.70
2018-06-05T09:46:10.080Z,71.70
2018-06-05T09:48:42.499Z,73.20
2018-06-05T09:51:14.873Z,70.90
2018-06-05T09:53:47.187Z,72.10
2018-06-05T09:56:20.264Z,71.40
2018-06-05T09:58:53.278Z,72.80
2018-06-05T10:01:25.746Z,72.50
2018-06-05T10:03:58.231Z,65.80
2018-06-05T10:06:30.591Z,65.40
2018-06-05T10:09:03.693Z,59.70
2018-06-05T10:11:36.774Z,60.80
2018-06-05T10:14:09.900Z,66.10
2018-06-05T10:16:42.334Z,66.30
2018-06-05T10:19:15.481Z,64.90
2018-06-05T10:21:47.926Z,64.90
2018-06-05T10:24:20.297Z,65.50
2018-06-05T10:26:52.693Z,66.60
2018-06-05T10:29:25.038Z,67.80
2018-06-05T10:31:57.374Z,68.80
2018-06-05T10:34:30.545Z,69.20
2018-06-05T10:37:02.928Z,69.10
2018-06-05T10:39:35.355Z,70.60
2018-06-05T10:42:07.694Z,70.40
2018-06-05T10:44:40.815Z,66.30
2018-06-05T10:47:13.173Z,66.20
2018-06-05T10:49:45.547Z,69.20
2018-06-05T10:52:17.779Z,64.00
2018-06-05T10:54:50.066Z,62.40
2018-06-05T10:57:23.105Z,60.20
2018-06-05T10:59:55.514Z,60.20
2018-06-05T11:02:27.872Z,58.80
2018-06-05T11:05:00.148Z,61.90
2018-06-05T11:07:33.292Z,60.00
2018-06-05T11:10:05.700Z,59.90
2018-06-05T11:12:38.090Z,64.40
2018-06-05T11:15:10.396Z,63.20
2018-06-05T11:17:42.851Z,65.50
2018-06-05T11:20:15.186Z,63.20
2018-06-05T11:22:47.776Z,63.70
2018-06-05T11:25:20.186Z,62.90
2018-06-05T11:27:53.271Z,62.90
2018-06-05T11:30:26.412Z,66.10
2018-06-05T11:32:58.736Z,66.10
2018-06-05T11:35:31.798Z,66.10
2018-06-05T11:38:04.195Z,65.90
2018-06-05T11:40:37.362Z,65.90
2018-06-05T11:43:09.638Z,65.80
2018-06-05T11:45:41.987Z,66.50
2018-06-05T11:48:14.316Z,66.60
2018-06-05T11:50:46.605Z,67.00
2018-06-05T11:53:18.962Z,67.60
2018-06-05T11:55:51.311Z,66.70
2018-06-05T11:58:23.671Z,65.90
2018-06-05T12:00:56.035Z,68.40
2018-06-05T12:03:28.359Z,63.50
2018-06-05T12:06:00.702Z,65.20
2018-06-05T12:08:33.092Z,65.10
2018-06-05T12:11:05.510Z,64.50
2018-06-05T12:13:37.899Z,67.50
2018-06-05T12:16:10.282Z,67.20
2018-06-05T12:18:42.599Z,68.50
2018-06-05T12:21:14.905Z,69.80
2018-06-05T12:23:47.567Z,68.80
2018-06-05T12:26:20.103Z,68.90
2018-06-05T12:28:52.478Z,69.20
2018-06-05T12:31:25.646Z,69.10
2018-06-05T12:33:58.288Z,69.50
2018-06-05T12:36:30.584Z,69.70
2018-06-05T12:39:02.955Z,70.00
2018-06-05T12:41:35.410Z,67.70
2018-06-05T12:44:07.784Z,68.60
2018-06-05T12:46:40.085Z,68.80
2018-06-05T12:49:12.415Z,70.30
2018-06-05T12:51:44.847Z,71.90
2018-06-05T12:54:17.252Z,70.20
2018-06-05T12:56:49.571Z,72.00
2018-06-05T12:59:21.963Z,73.50
2018-06-05T13:01:55.057Z,74.10
2018-06-05T13:04:28.147Z,74.80
2018-06-05T13:07:01.204Z,73.20
2018-06-05T13:09:33.610Z,73.20
2018-06-05T13:12:06.757Z,70.30
2018-06-05T13:14:39.072Z,70.30
2018-06-05T13:17:12.078Z,69.10
2018-06-05T13:19:44.417Z,69.10
2018-06-05T13:22:17.610Z,70.70
2018-06-05T13:24:50.257Z,70.60
2018-06-05T13:27:22.647Z,73.30
2018-06-05T13:29:54.962Z,72.50
2018-06-05T13:32:27.246Z,71.50
2018-06-05T13:34:59.599Z,70.50
2018-06-05T13:37:32.635Z,72.10
2018-06-05T13:40:04.960Z,72.00
2018-06-05T13:42:38.068Z,71.30
2018-06-05T13:45:10.519Z,71.30
2018-06-05T13:47:43.602Z,73.20
2018-06-05T13:50:16.684Z,75.20
2018-06-05T13:52:49.845Z,72.80
2018-06-05T13:55:22.194Z,72.70
2018-06-05T13:57:54.503Z,71.90
2018-06-05T14:00:26.916Z,72.10
2018-06-05T14:03:00.074Z,71.20
2018-06-05T14:05:32.479Z,71.20
2018-06-05T14:08:05.604Z,73.20
2018-06-05T14:10:37.934Z,73.30
2018-06-05T14:13:11.011Z,71.40
2018-06-05T14:15:44.240Z,70.40
2018-06-05T14:18:16.613Z,70.40
2018-06-05T14:20:49.026Z,70.70
2018-06-05T14:23:21.353Z,70.30
2018-06-05T14:25:53.654Z,71.30
2018-06-05T14:28:26.002Z,71.90
2018-06-05T14:30:58.429Z,70.40
2018-06-05T14:33:31.598Z,71.70
2018-06-05T14:36:04.092Z,71.60
2018-06-05T14:38:37.160Z,70.60
2018-06-05T14:41:09.634Z,70.60
2018-06-05T14:43:42.018Z,72.80
2018-06-05T14:46:14.355Z,73.80
2018-06-05T14:48:46.649Z,74.50
2018-06-05T14:51:18.940Z,73.40
2018-06-05T14:53:51.219Z,74.50
2018-06-05T14:56:23.509Z,74.60
2018-06-05T14:58:55.952Z,71.70
2018-06-05T15:01:28.354Z,72.00
2018-06-05T15:04:01.442Z,74.10
2018-06-05T15:06:34.617Z,74.60
2018-06-05T15:09:06.907Z,74.50
2018-06-05T15:11:40.015Z,75.80
2018-06-05T15:14:13.005Z,75.80
2018-06-05T15:16:45.399Z,75.80
2018-06-05T15:19:17.697Z,77.30
2018-06-05T15:21:50.095Z,75.90
2018-06-05T15:24:23.293Z,74.80
2018-06-05T15:26:56.468Z,75.90
2018-06-05T15:29:28.815Z,75.80
2018-06-05T15:32:01.202Z,76.80
2018-06-05T15:34:33.712Z,76.40
2018-06-05T15:37:06.958Z,75.80
2018-06-05T15:39:39.324Z,75.80
2018-06-05T15:42:11.625Z,75.50
2018-06-05T15:44:44.623Z,77.80
2018-06-05T15:47:17.909Z,76.80
2018-06-05T15:49:50.272Z,76.70
2018-06-05T15:52:22.685Z,76.90
2018-06-05T15:54:55.034Z,78.20
2018-06-05T15:57:28.211Z,79.10
2018-06-05T16:00:00.513Z,79.00
2018-06-05T16:02:32.861Z,77.90
2018-06-05T16:05:06.030Z,79.00
2018-06-05T16:07:38.334Z,79.00
2018-06-05T16:10:11.442Z,79.40
2018-06-05T16:12:43.831Z,79.40
2018-06-05T16:15:16.128Z,78.40
2018-06-05T16:17:48.481Z,79.60
2018-06-05T16:20:20.922Z,80.00
2018-06-05T16:22:53.221Z,81.20
2018-06-05T16:25:25.661Z,81.50
2018-06-05T16:27:58.843Z,81.30
2018-06-05T16:30:32.020Z,81.40
2018-06-05T16:33:04.319Z,81.30
2018-06-05T16:35:37.477Z,82.20
2018-06-05T16:38:09.842Z,82.20
2018-06-05T16:40:42.252Z,82.00
2018-06-05T16:43:15.438Z,82.00
2018-06-05T16:45:47.752Z,81.90
2018-06-05T16:48:20.081Z,82.60
2018-06-05T16:50:52.354Z,83.30
2018-06-05T16:53:24.626Z,82.80
2018-06-05T16:55:56.942Z,84.90
2018-06-05T16:58:29.475Z,83.80
2018-06-05T17:01:01.730Z,84.20
2018-06-05T17:03:34.119Z,83.70
2018-06-05T17:06:07.168Z,84.70
2018-06-05T17:08:39.479Z,84.70
2018-06-05T17:11:11.789Z,83.70
2018-06-05T17:13:44.203Z,85.00
2018-06-05T17:16:16.578Z,84.10
2018-06-05T17:18:49.008Z,84.50
2018-06-05T17:21:21.384Z,85.90
2018-06-05T17:23:53.744Z,84.80
2018-06-05T17:26:26.091Z,85.40
2018-06-05T17:28:59.199Z,85.30
2018-06-05T17:31:31.541Z,85.20
2018-06-05T17:34:03.938Z,87.40
2018-06-05T17:36:36.339Z,86.20
2018-06-05T17:39:08.604Z,86.30
2018-06-05T17:41:40.952Z,85.70
2018-06-05T17:44:13.377Z,87.00
2018-06-05T17:46:45.787Z,86.20
2018-06-05T17:49:18.143Z,85.50
2018-06-05T17:51:50.532Z,85.10
2018-06-05T17:54:24.735Z,86.10
2018-06-05T17:56:57.210Z,86.00
2018-06-05T17:59:29.607Z,87.60
2018-06-05T18:02:02.724Z,85.10
2018-06-05T18:04:35.181Z,85.10
2018-06-05T18:07:07.539Z,86.40
2018-06-05T18:09:40.617Z,86.90
2018-06-05T18:12:12.993Z,86.90
2018-06-05T18:14:45.309Z,87.10
2018-06-05T18:17:17.715Z,86.30
2018-06-05T18:19:50.162Z,86.90
2018-06-05T18:22:22.559Z,87.10
2018-06-05T18:24:54.981Z,87.80
2018-06-05T18:27:27.405Z,87.40
2018-06-05T18:29:59.784Z,87.00
2018-06-05T18:32:32.142Z,87.80
2018-06-05T18:35:04.497Z,88.40
2018-06-05T18:37:36.753Z,88.10
2018-06-05T18:40:09.082Z,88.40
2018-06-05T18:42:41.435Z,88.70
2018-06-05T18:45:13.851Z,88.80
2018-06-05T18:47:53.255Z,89.30
2018-06-05T18:50:25.591Z,88.90
2018-06-05T18:52:57.988Z,89.00
2018-06-05T18:55:30.261Z,89.30
2018-06-05T18:58:02.670Z,89.40
2018-06-05T19:00:35.745Z,90.00
2018-06-05T19:03:08.107Z,90.00
2018-06-05T19:05:40.397Z,90.40
2018-06-05T19:08:12.730Z,90.40
2018-06-05T19:10:45.174Z,90.60
2018-06-05T19:13:17.622Z,90.70
2018-06-05T19:15:50.672Z,90.90
2018-06-05T19:18:23.013Z,90.90
2018-06-05T19:20:55.303Z,90.90
2018-06-05T19:23:27.659Z,91.20
2018-06-05T19:25:59.972Z,91.00
2018-06-05T19:28:32.264Z,91.40
2018-06-05T19:31:04.578Z,91.50
2018-06-05T19:33:36.975Z,91.30
2018-06-05T19:36:09.428Z,91.50
2018-06-05T19:38:41.784Z,92.10
2018-06-05T19:41:15.002Z,92.30
2018-06-05T19:43:48.061Z,92.50
2018-06-05T19:46:20.507Z,92.50
2018-06-05T19:48:52.787Z,92.80
2018-06-05T19:51:25.925Z,92.90
2018-06-05T19:53:58.279Z,92.90
2018-06-05T19:56:30.633Z,92.80
2018-06-05T19:59:03.783Z,93.60
2018-06-05T20:01:36.185Z,93.50
2018-06-05T20:04:09.359Z,93.70
2018-06-05T20:06:41.680Z,93.60
2018-06-05T20:09:14.085Z,93.60
2018-06-05T20:11:46.480Z,94.10
2018-06-05T20:14:18.836Z,94.30
2018-06-05T20:16:51.252Z,94.20
2018-06-05T20:19:24.408Z,94.60
2018-06-05T20:21:56.826Z,94.60
2018-06-05T20:24:29.240Z,95.00
2018-06-05T20:27:01.557Z,95.10
2018-06-05T20:29:34.651Z,94.90
2018-06-05T20:32:06.964Z,94.90
2018-06-05T20:34:39.365Z,95.30
2018-06-05T20:37:11.766Z,95.70
2018-06-05T20:39:44.825Z,95.70
2018-06-05T20:42:17.160Z,95.70
2018-06-05T20:44:49.536Z,95.80
2018-06-05T20:47:21.875Z,96.00
2018-06-05T20:49:55.050Z,96.00
2018-06-05T20:52:27.326Z,96.00
2018-06-05T20:54:59.661Z,96.20
2018-06-05T20:57:32.014Z,96.50
2018-06-05T21:00:04.286Z,96.50
2018-06-05T21:02:36.600Z,96.50
2018-06-05T21:05:09.097Z,96.40
2018-06-05T21:07:42.305Z,97.00
2018-06-05T21:10:14.664Z,97.00
2018-06-05T21:12:47.804Z,96.90
2018-06-05T21:15:20.200Z,96.80
2018-06-05T21:17:52.554Z,96.90
2018-06-05T21:20:24.774Z,97.40
2018-06-05T21:22:57.956Z,96.80
2018-06-05T21:25:31.117Z,97.10
2018-06-05T21:28:03.475Z,97.10
2018-06-05T21:30:35.871Z,97.30
2018-06-05T21:33:08.168Z,97.50
2018-06-05T21:35:41.264Z,97.60
2018-06-05T21:38:14.319Z,97.90
2018-06-05T21:40:46.674Z,97.90
2018-06-05T21:43:18.984Z,98.30
2018-06-05T21:45:51.981Z,97.50
2018-06-05T21:48:25.093Z,97.50
2018-06-05T21:50:57.405Z,97.40
2018-06-05T21:53:29.703Z,97.60
2018-06-05T21:56:02.724Z,97.60
2018-06-05T21:58:35.159Z,97.90
2018-06-05T22:01:07.548Z,97.60
2018-06-05T22:03:39.987Z,97.70
2018-06-05T22:06:12.281Z,97.70
2018-06-05T22:08:45.485Z,98.10
2018-06-05T22:11:18.651Z,97.60
2018-06-05T22:13:51.066Z,97.60
2018-06-05T22:16:23.369Z,97.90
2018-06-05T22:18:55.799Z,97.80
2018-06-05T22:21:28.064Z,98.00
2018-06-05T22:24:01.250Z,97.80
2018-06-05T22:26:34.492Z,97.90
2018-06-05T22:29:06.806Z,97.90
2018-06-05T22:31:39.164Z,98.00
2018-06-05T22:34:11.533Z,98.20
2018-06-05T22:36:43.823Z,98.00
2018-06-05T22:39:16.194Z,98.10
2018-06-05T22:41:48.484Z,98.40
2018-06-05T22:44:21.664Z,98.50
2018-06-05T22:46:54.835Z,98.40
2018-06-05T22:49:27.215Z,98.40
2018-06-05T22:51:59.546Z,98.60
2018-06-05T22:54:31.976Z,98.90
2018-06-05T22:57:05.015Z,98.90
2018-06-05T22:59:38.160Z,99.00
2018-06-05T23:02:11.276Z,99.40
2018-06-05T23:04:43.524Z,99.40
2018-06-05T23:07:15.872Z,99.50
2018-06-05T23:09:48.258Z,99.40
2018-06-05T23:12:20.534Z,99.60
2018-06-05T23:14:53.673Z,99.60
2018-06-05T23:17:26.758Z,99.90
2018-06-05T23:19:59.186Z,99.90
2018-06-05T23:22:32.327Z,99.90
2018-06-05T23:25:04.703Z,99.90
2018-06-05T23:27:37.108Z,99.70
2018-06-05T23:30:10.206Z,99.90
2018-06-05T23:32:42.517Z,99.90
2018-06-05T23:35:14.956Z,99.90
2018-06-05T23:37:48.044Z,99.90
2018-06-05T23:40:21.143Z,99.90
2018-06-05T23:42:54.294Z,99.90
2018-06-05T23:45:26.650Z,99.90
2018-06-05T23:47:59.049Z,99.90
2018-06-05T23:50:31.419Z,99.90
2018-06-05T23:53:03.694Z,99.90
2018-06-05T23:55:36.223Z,99.90
2018-06-05T23:58:08.626Z,99.90
